sensor_id;sensor_type;location;lat;lon;timestamp;P1;durP1;ratioP1;P2;durP2;ratioP2
39452;SDS011;25154;-33.684;151.102;2022-09-09T00:04:50;4.00;;;1.30;;
39452;SDS011;25154;-33.684;151.102;2022-09-09T00:10:31;3.53;;;1.30;;
39452;SDS011;25154;-33.684;151.102;2022-09-09T00:21:10;3.30;;;1.30;;
39452;SDS011;25154;-33.684;151.102;2022-09-09T00:26:26;5.50;;;1.70;;
39452;SDS011;25154;-33.684;151.102;2022-09-09T00:31:39;4.57;;;1.60;;
39452;SDS011;25154;-33.684;151.102;2022-09-09T00:36:42;2.90;;;1.20;;
39452;SDS011;25154;-33.684;151.102;2022-09-09T00:41:59;3.95;;;1.25;;
39452;SDS011;25154;-33.684;151.102;2022-09-09T00:52:53;2.38;;;1.02;;
39452;SDS011;25154;-33.684;151.102;2022-09-09T00:58:18;2.42;;;1.00;;
39452;SDS011;25154;-33.684;151.102;2022-09-09T01:14:53;2.25;;;1.08;;
39452;SDS011;25154;-33.684;151.102;2022-09-09T01:30:11;5.22;;;1.00;;
39452;SDS011;25154;-33.684;151.102;2022-09-09T01:35:29;1.65;;;0.90;;
39452;SDS011;25154;-33.684;151.102;2022-09-09T01:40:52;1.55;;;0.82;;
39452;SDS011;25154;-33.684;151.102;2022-09-09T01:45:55;2.92;;;0.90;;
39452;SDS011;25154;-33.684;151.102;2022-09-09T01:51:00;2.35;;;0.90;;
39452;SDS011;25154;-33.684;151.102;2022-09-09T01:56:04;1.35;;;0.75;;
39452;SDS011;25154;-33.684;151.102;2022-09-09T02:01:42;1.50;;;0.73;;
39452;SDS011;25154;-33.684;151.102;2022-09-09T02:06:58;2.55;;;1.23;;
39452;SDS011;25154;-33.684;151.102;2022-09-09T02:12:13;3.45;;;0.80;;
39452;SDS011;25154;-33.684;151.102;2022-09-09T02:17:23;1.05;;;0.60;;
39452;SDS011;25154;-33.684;151.102;2022-09-09T02:22:33;1.75;;;0.70;;
39452;SDS011;25154;-33.684;151.102;2022-09-09T02:27:40;1.52;;;0.77;;
39452;SDS011;25154;-33.684;151.102;2022-09-09T02:32:45;0.63;;;0.60;;
39452;SDS011;25154;-33.684;151.102;2022-09-09T02:37:53;3.15;;;0.80;;
39452;SDS011;25154;-33.684;151.102;2022-09-09T02:42:59;0.85;;;0.60;;
39452;SDS011;25154;-33.684;151.102;2022-09-09T02:53:19;1.30;;;0.75;;
39452;SDS011;25154;-33.684;151.102;2022-09-09T02:58:25;0.85;;;0.63;;
39452;SDS011;25154;-33.684;151.102;2022-09-09T03:03:28;1.90;;;0.80;;
39452;SDS011;25154;-33.684;151.102;2022-09-09T03:08:31;1.67;;;0.73;;
39452;SDS011;25154;-33.684;151.102;2022-09-09T03:13:33;2.15;;;0.75;;
39452;SDS011;25154;-33.684;151.102;2022-09-09T03:18:35;1.92;;;0.70;;
39452;SDS011;25154;-33.684;151.102;2022-09-09T03:23:38;4.65;;;1.00;;
39452;SDS011;25154;-33.684;151.102;2022-09-09T03:28:40;1.80;;;1.00;;
39452;SDS011;25154;-33.684;151.102;2022-09-09T03:33:43;0.90;;;0.60;;
39452;SDS011;25154;-33.684;151.102;2022-09-09T03:38:46;1.38;;;0.70;;
39452;SDS011;25154;-33.684;151.102;2022-09-09T03:43:48;1.40;;;0.90;;
39452;SDS011;25154;-33.684;151.102;2022-09-09T03:48:54;1.20;;;0.55;;
39452;SDS011;25154;-33.684;151.102;2022-09-09T03:53:57;1.05;;;0.80;;
39452;SDS011;25154;-33.684;151.102;2022-09-09T03:59:00;2.05;;;0.82;;
39452;SDS011;25154;-33.684;151.102;2022-09-09T04:04:03;0.93;;;0.70;;
39452;SDS011;25154;-33.684;151.102;2022-09-09T04:09:05;1.15;;;0.63;;
39452;SDS011;25154;-33.684;151.102;2022-09-09T04:14:07;1.20;;;0.60;;
39452;SDS011;25154;-33.684;151.102;2022-09-09T04:19:11;2.25;;;0.60;;
39452;SDS011;25154;-33.684;151.102;2022-09-09T04:24:14;0.88;;;0.68;;
39452;SDS011;25154;-33.684;151.102;2022-09-09T04:29:16;1.58;;;0.55;;
39452;SDS011;25154;-33.684;151.102;2022-09-09T04:34:19;1.38;;;0.60;;
39452;SDS011;25154;-33.684;151.102;2022-09-09T04:39:21;0.50;;;0.50;;
39452;SDS011;25154;-33.684;151.102;2022-09-09T04:44:23;1.75;;;0.90;;
39452;SDS011;25154;-33.684;151.102;2022-09-09T04:49:26;1.33;;;0.60;;
39452;SDS011;25154;-33.684;151.102;2022-09-09T04:54:28;1.38;;;0.70;;
39452;SDS011;25154;-33.684;151.102;2022-09-09T04:59:31;0.98;;;0.57;;
39452;SDS011;25154;-33.684;151.102;2022-09-09T05:04:33;1.17;;;0.70;;
39452;SDS011;25154;-33.684;151.102;2022-09-09T05:09:35;2.15;;;0.60;;
39452;SDS011;25154;-33.684;151.102;2022-09-09T05:14:38;0.85;;;0.60;;
39452;SDS011;25154;-33.684;151.102;2022-09-09T05:19:40;0.45;;;0.45;;
39452;SDS011;25154;-33.684;151.102;2022-09-09T05:24:43;1.25;;;0.50;;
39452;SDS011;25154;-33.684;151.102;2022-09-09T05:29:46;0.47;;;0.47;;
39452;SDS011;25154;-33.684;151.102;2022-09-09T05:34:48;0.40;;;0.40;;
39452;SDS011;25154;-33.684;151.102;2022-09-09T05:39:52;0.52;;;0.50;;
39452;SDS011;25154;-33.684;151.102;2022-09-09T05:44:54;0.50;;;0.50;;
39452;SDS011;25154;-33.684;151.102;2022-09-09T05:49:59;1.85;;;0.50;;
39452;SDS011;25154;-33.684;151.102;2022-09-09T05:55:02;0.50;;;0.50;;
39452;SDS011;25154;-33.684;151.102;2022-09-09T06:00:05;1.67;;;0.65;;
39452;SDS011;25154;-33.684;151.102;2022-09-09T06:05:09;0.75;;;0.40;;
39452;SDS011;25154;-33.684;151.102;2022-09-09T06:10:11;2.15;;;0.50;;
39452;SDS011;25154;-33.684;151.102;2022-09-09T06:15:14;0.65;;;0.40;;
39452;SDS011;25154;-33.684;151.102;2022-09-09T06:20:16;0.40;;;0.40;;
39452;SDS011;25154;-33.684;151.102;2022-09-09T06:25:18;0.50;;;0.50;;
39452;SDS011;25154;-33.684;151.102;2022-09-09T06:30:21;1.45;;;0.60;;
39452;SDS011;25154;-33.684;151.102;2022-09-09T06:35:23;0.50;;;0.50;;
39452;SDS011;25154;-33.684;151.102;2022-09-09T06:40:26;0.85;;;0.60;;
39452;SDS011;25154;-33.684;151.102;2022-09-09T06:45:28;0.68;;;0.43;;
39452;SDS011;25154;-33.684;151.102;2022-09-09T06:50:31;0.88;;;0.68;;
39452;SDS011;25154;-33.684;151.102;2022-09-09T06:55:33;1.13;;;0.50;;
39452;SDS011;25154;-33.684;151.102;2022-09-09T07:00:36;1.35;;;0.70;;
39452;SDS011;25154;-33.684;151.102;2022-09-09T07:05:39;0.90;;;0.63;;
39452;SDS011;25154;-33.684;151.102;2022-09-09T07:10:41;2.53;;;0.68;;
39452;SDS011;25154;-33.684;151.102;2022-09-09T07:15:44;0.70;;;0.60;;
39452;SDS011;25154;-33.684;151.102;2022-09-09T07:20:55;1.92;;;0.70;;
39452;SDS011;25154;-33.684;151.102;2022-09-09T07:25:58;1.10;;;0.80;;
39452;SDS011;25154;-33.684;151.102;2022-09-09T07:31:01;2.13;;;0.90;;
39452;SDS011;25154;-33.684;151.102;2022-09-09T07:36:06;1.63;;;0.80;;
39452;SDS011;25154;-33.684;151.102;2022-09-09T07:41:11;3.72;;;0.70;;
39452;SDS011;25154;-33.684;151.102;2022-09-09T07:46:18;1.45;;;0.90;;
39452;SDS011;25154;-33.684;151.102;2022-09-09T07:51:22;3.28;;;1.17;;
39452;SDS011;25154;-33.684;151.102;2022-09-09T07:56:27;1.50;;;0.95;;
39452;SDS011;25154;-33.684;151.102;2022-09-09T08:01:32;3.33;;;1.40;;
39452;SDS011;25154;-33.684;151.102;2022-09-09T08:06:40;1.63;;;1.00;;
39452;SDS011;25154;-33.684;151.102;2022-09-09T08:11:44;2.55;;;1.00;;
39452;SDS011;25154;-33.684;151.102;2022-09-09T08:16:47;1.80;;;1.00;;
39452;SDS011;25154;-33.684;151.102;2022-09-09T08:21:50;2.10;;;0.80;;
39452;SDS011;25154;-33.684;151.102;2022-09-09T08:26:53;1.63;;;0.90;;
39452;SDS011;25154;-33.684;151.102;2022-09-09T08:31:57;1.05;;;0.70;;
39452;SDS011;25154;-33.684;151.102;2022-09-09T08:37:00;1.50;;;0.80;;
39452;SDS011;25154;-33.684;151.102;2022-09-09T08:47:54;2.17;;;0.98;;
39452;SDS011;25154;-33.684;151.102;2022-09-09T08:58:25;1.40;;;0.70;;
39452;SDS011;25154;-33.684;151.102;2022-09-09T09:14:31;0.60;;;0.60;;
39452;SDS011;25154;-33.684;151.102;2022-09-09T09:19:38;1.15;;;0.70;;
39452;SDS011;25154;-33.684;151.102;2022-09-09T09:24:45;0.70;;;0.70;;
39452;SDS011;25154;-33.684;151.102;2022-09-09T09:29:54;1.42;;;0.70;;
39452;SDS011;25154;-33.684;151.102;2022-09-09T09:35:00;1.30;;;0.88;;
39452;SDS011;25154;-33.684;151.102;2022-09-09T09:40:09;3.53;;;0.95;;
39452;SDS011;25154;-33.684;151.102;2022-09-09T09:45:44;1.80;;;1.00;;
39452;SDS011;25154;-33.684;151.102;2022-09-09T10:01:02;1.75;;;1.08;;
39452;SDS011;25154;-33.684;151.102;2022-09-09T10:06:05;2.63;;;1.00;;
39452;SDS011;25154;-33.684;151.102;2022-09-09T10:17:25;3.85;;;1.30;;
39452;SDS011;25154;-33.684;151.102;2022-09-09T10:22:26;2.15;;;1.10;;
39452;SDS011;25154;-33.684;151.102;2022-09-09T10:27:38;2.58;;;1.40;;
39452;SDS011;25154;-33.684;151.102;2022-09-09T10:32:49;3.00;;;1.13;;
39452;SDS011;25154;-33.684;151.102;2022-09-09T10:43:41;1.55;;;0.93;;
39452;SDS011;25154;-33.684;151.102;2022-09-09T10:59:55;3.38;;;1.70;;
39452;SDS011;25154;-33.684;151.102;2022-09-09T11:05:20;3.28;;;1.80;;
39452;SDS011;25154;-33.684;151.102;2022-09-09T11:11:36;6.72;;;2.58;;
39452;SDS011;25154;-33.684;151.102;2022-09-09T11:21:48;1.00;;;0.73;;
39452;SDS011;25154;-33.684;151.102;2022-09-09T11:27:03;1.45;;;0.70;;
39452;SDS011;25154;-33.684;151.102;2022-09-09T11:43:10;1.75;;;0.70;;
39452;SDS011;25154;-33.684;151.102;2022-09-09T12:15:29;2.30;;;0.70;;
39452;SDS011;25154;-33.684;151.102;2022-09-09T12:36:26;1.27;;;0.50;;
39452;SDS011;25154;-33.684;151.102;2022-09-09T12:41:31;0.82;;;0.70;;
39452;SDS011;25154;-33.684;151.102;2022-09-09T12:46:43;0.55;;;0.55;;
39452;SDS011;25154;-33.684;151.102;2022-09-09T12:51:47;0.60;;;0.60;;
39452;SDS011;25154;-33.684;151.102;2022-09-09T12:56:49;0.73;;;0.40;;
39452;SDS011;25154;-33.684;151.102;2022-09-09T13:01:56;2.40;;;0.50;;
39452;SDS011;25154;-33.684;151.102;2022-09-09T13:07:06;0.40;;;0.40;;
39452;SDS011;25154;-33.684;151.102;2022-09-09T13:12:13;1.23;;;0.68;;
39452;SDS011;25154;-33.684;151.102;2022-09-09T13:17:21;0.57;;;0.55;;
39452;SDS011;25154;-33.684;151.102;2022-09-09T13:27:38;2.90;;;0.70;;
39452;SDS011;25154;-33.684;151.102;2022-09-09T13:32:43;0.73;;;0.60;;
39452;SDS011;25154;-33.684;151.102;2022-09-09T13:37:45;1.13;;;0.70;;
39452;SDS011;25154;-33.684;151.102;2022-09-09T13:42:50;0.43;;;0.43;;
39452;SDS011;25154;-33.684;151.102;2022-09-09T13:47:55;1.25;;;0.60;;
39452;SDS011;25154;-33.684;151.102;2022-09-09T13:52:58;1.25;;;0.50;;
39452;SDS011;25154;-33.684;151.102;2022-09-09T13:58:02;1.75;;;0.70;;
39452;SDS011;25154;-33.684;151.102;2022-09-09T14:03:06;0.85;;;0.50;;
39452;SDS011;25154;-33.684;151.102;2022-09-09T14:08:10;1.23;;;0.70;;
39452;SDS011;25154;-33.684;151.102;2022-09-09T14:13:27;1.30;;;0.65;;
39452;SDS011;25154;-33.684;151.102;2022-09-09T14:18:30;0.40;;;0.40;;
39452;SDS011;25154;-33.684;151.102;2022-09-09T14:23:34;0.50;;;0.50;;
39452;SDS011;25154;-33.684;151.102;2022-09-09T14:28:36;1.92;;;0.60;;
39452;SDS011;25154;-33.684;151.102;2022-09-09T14:33:40;1.05;;;0.52;;
39452;SDS011;25154;-33.684;151.102;2022-09-09T14:38:43;0.30;;;0.30;;
39452;SDS011;25154;-33.684;151.102;2022-09-09T14:43:45;0.50;;;0.50;;
39452;SDS011;25154;-33.684;151.102;2022-09-09T14:48:48;0.30;;;0.30;;
39452;SDS011;25154;-33.684;151.102;2022-09-09T14:53:52;0.40;;;0.40;;
39452;SDS011;25154;-33.684;151.102;2022-09-09T14:58:58;0.90;;;0.40;;
39452;SDS011;25154;-33.684;151.102;2022-09-09T15:04:03;0.40;;;0.40;;
39452;SDS011;25154;-33.684;151.102;2022-09-09T15:09:06;0.73;;;0.43;;
39452;SDS011;25154;-33.684;151.102;2022-09-09T15:14:08;0.30;;;0.30;;
39452;SDS011;25154;-33.684;151.102;2022-09-09T15:19:12;0.50;;;0.50;;
39452;SDS011;25154;-33.684;151.102;2022-09-09T15:24:14;0.40;;;0.40;;
39452;SDS011;25154;-33.684;151.102;2022-09-09T15:29:17;0.43;;;0.30;;
39452;SDS011;25154;-33.684;151.102;2022-09-09T15:34:19;0.52;;;0.40;;
39452;SDS011;25154;-33.684;151.102;2022-09-09T15:39:22;1.67;;;0.40;;
39452;SDS011;25154;-33.684;151.102;2022-09-09T15:44:24;0.90;;;0.60;;
39452;SDS011;25154;-33.684;151.102;2022-09-09T15:49:26;2.42;;;0.60;;
39452;SDS011;25154;-33.684;151.102;2022-09-09T15:54:31;0.98;;;0.50;;
39452;SDS011;25154;-33.684;151.102;2022-09-09T15:59:35;1.75;;;0.47;;
39452;SDS011;25154;-33.684;151.102;2022-09-09T16:04:38;0.80;;;0.45;;
39452;SDS011;25154;-33.684;151.102;2022-09-09T16:09:40;1.55;;;0.50;;
39452;SDS011;25154;-33.684;151.102;2022-09-09T16:14:43;0.50;;;0.50;;
39452;SDS011;25154;-33.684;151.102;2022-09-09T16:19:46;1.15;;;0.50;;
39452;SDS011;25154;-33.684;151.102;2022-09-09T16:24:48;0.43;;;0.40;;
39452;SDS011;25154;-33.684;151.102;2022-09-09T16:29:50;0.85;;;0.40;;
39452;SDS011;25154;-33.684;151.102;2022-09-09T16:34:54;0.40;;;0.40;;
39452;SDS011;25154;-33.684;151.102;2022-09-09T16:39:57;0.40;;;0.40;;
39452;SDS011;25154;-33.684;151.102;2022-09-09T16:44:59;1.35;;;0.50;;
39452;SDS011;25154;-33.684;151.102;2022-09-09T16:50:01;0.57;;;0.47;;
39452;SDS011;25154;-33.684;151.102;2022-09-09T16:55:04;0.60;;;0.50;;
39452;SDS011;25154;-33.684;151.102;2022-09-09T17:00:07;2.53;;;0.43;;
39452;SDS011;25154;-33.684;151.102;2022-09-09T17:05:09;0.25;;;0.25;;
39452;SDS011;25154;-33.684;151.102;2022-09-09T17:10:12;0.47;;;0.40;;
39452;SDS011;25154;-33.684;151.102;2022-09-09T17:15:15;1.10;;;0.50;;
39452;SDS011;25154;-33.684;151.102;2022-09-09T17:20:18;2.55;;;0.50;;
39452;SDS011;25154;-33.684;151.102;2022-09-09T17:25:22;0.80;;;0.40;;
39452;SDS011;25154;-33.684;151.102;2022-09-09T17:30:25;0.57;;;0.35;;
39452;SDS011;25154;-33.684;151.102;2022-09-09T17:35:28;0.50;;;0.50;;
39452;SDS011;25154;-33.684;151.102;2022-09-09T17:40:30;1.45;;;0.43;;
39452;SDS011;25154;-33.684;151.102;2022-09-09T17:45:33;0.68;;;0.50;;
39452;SDS011;25154;-33.684;151.102;2022-09-09T17:50:35;0.75;;;0.47;;
39452;SDS011;25154;-33.684;151.102;2022-09-09T17:55:37;0.77;;;0.60;;
39452;SDS011;25154;-33.684;151.102;2022-09-09T18:00:40;0.43;;;0.40;;
39452;SDS011;25154;-33.684;151.102;2022-09-09T18:05:42;0.43;;;0.43;;
39452;SDS011;25154;-33.684;151.102;2022-09-09T18:10:51;0.45;;;0.45;;
39452;SDS011;25154;-33.684;151.102;2022-09-09T18:15:55;2.38;;;0.50;;
39452;SDS011;25154;-33.684;151.102;2022-09-09T18:20:59;0.55;;;0.35;;
39452;SDS011;25154;-33.684;151.102;2022-09-09T18:26:07;1.00;;;0.45;;
39452;SDS011;25154;-33.684;151.102;2022-09-09T18:31:15;0.93;;;0.63;;
39452;SDS011;25154;-33.684;151.102;2022-09-09T18:36:20;0.40;;;0.40;;
39452;SDS011;25154;-33.684;151.102;2022-09-09T18:46:34;1.75;;;0.60;;
39452;SDS011;25154;-33.684;151.102;2022-09-09T18:51:40;2.63;;;0.60;;
39452;SDS011;25154;-33.684;151.102;2022-09-09T18:56:43;3.80;;;0.65;;
39452;SDS011;25154;-33.684;151.102;2022-09-09T19:01:47;1.05;;;0.60;;
39452;SDS011;25154;-33.684;151.102;2022-09-09T19:06:50;2.70;;;0.70;;
39452;SDS011;25154;-33.684;151.102;2022-09-09T19:11:57;0.57;;;0.50;;
39452;SDS011;25154;-33.684;151.102;2022-09-09T19:17:00;2.05;;;0.60;;
39452;SDS011;25154;-33.684;151.102;2022-09-09T19:22:03;1.25;;;0.60;;
39452;SDS011;25154;-33.684;151.102;2022-09-09T19:27:08;2.42;;;0.60;;
39452;SDS011;25154;-33.684;151.102;2022-09-09T19:32:10;2.70;;;0.55;;
39452;SDS011;25154;-33.684;151.102;2022-09-09T19:37:12;0.57;;;0.47;;
39452;SDS011;25154;-33.684;151.102;2022-09-09T19:42:15;3.03;;;0.63;;
39452;SDS011;25154;-33.684;151.102;2022-09-09T19:47:18;1.95;;;0.80;;
39452;SDS011;25154;-33.684;151.102;2022-09-09T19:52:20;0.30;;;0.30;;
39452;SDS011;25154;-33.684;151.102;2022-09-09T19:57:22;1.10;;;0.52;;
39452;SDS011;25154;-33.684;151.102;2022-09-09T20:02:28;0.80;;;0.50;;
39452;SDS011;25154;-33.684;151.102;2022-09-09T20:07:30;0.57;;;0.43;;
39452;SDS011;25154;-33.684;151.102;2022-09-09T20:12:33;0.65;;;0.50;;
39452;SDS011;25154;-33.684;151.102;2022-09-09T20:17:35;1.08;;;0.50;;
39452;SDS011;25154;-33.684;151.102;2022-09-09T20:22:37;1.27;;;0.50;;
39452;SDS011;25154;-33.684;151.102;2022-09-09T20:27:39;1.40;;;0.50;;
39452;SDS011;25154;-33.684;151.102;2022-09-09T20:32:42;1.92;;;0.70;;
39452;SDS011;25154;-33.684;151.102;2022-09-09T20:37:44;0.63;;;0.50;;
39452;SDS011;25154;-33.684;151.102;2022-09-09T20:42:47;1.10;;;0.68;;
39452;SDS011;25154;-33.684;151.102;2022-09-09T20:47:55;0.98;;;0.60;;
39452;SDS011;25154;-33.684;151.102;2022-09-09T20:52:57;0.43;;;0.40;;
39452;SDS011;25154;-33.684;151.102;2022-09-09T20:58:00;2.70;;;0.60;;
39452;SDS011;25154;-33.684;151.102;2022-09-09T21:03:02;3.50;;;1.30;;
39452;SDS011;25154;-33.684;151.102;2022-09-09T21:08:05;2.33;;;0.60;;
39452;SDS011;25154;-33.684;151.102;2022-09-09T21:13:09;5.18;;;0.60;;
39452;SDS011;25154;-33.684;151.102;2022-09-09T21:18:15;3.40;;;0.63;;
39452;SDS011;25154;-33.684;151.102;2022-09-09T21:23:19;3.30;;;0.60;;
39452;SDS011;25154;-33.684;151.102;2022-09-09T21:28:23;2.33;;;0.50;;
39452;SDS011;25154;-33.684;151.102;2022-09-09T21:33:27;1.30;;;0.60;;
39452;SDS011;25154;-33.684;151.102;2022-09-09T21:38:31;1.33;;;0.50;;
39452;SDS011;25154;-33.684;151.102;2022-09-09T21:43:35;1.27;;;0.50;;
39452;SDS011;25154;-33.684;151.102;2022-09-09T21:48:40;1.05;;;0.55;;
39452;SDS011;25154;-33.684;151.102;2022-09-09T21:53:44;1.95;;;0.60;;
39452;SDS011;25154;-33.684;151.102;2022-09-09T21:58:47;1.38;;;0.52;;
39452;SDS011;25154;-33.684;151.102;2022-09-09T22:03:56;0.30;;;0.30;;
39452;SDS011;25154;-33.684;151.102;2022-09-09T22:09:00;0.65;;;0.40;;
39452;SDS011;25154;-33.684;151.102;2022-09-09T22:14:03;0.50;;;0.50;;
39452;SDS011;25154;-33.684;151.102;2022-09-09T22:19:08;0.88;;;0.47;;
39452;SDS011;25154;-33.684;151.102;2022-09-09T22:24:10;0.40;;;0.40;;
39452;SDS011;25154;-33.684;151.102;2022-09-09T22:29:12;1.58;;;0.57;;
39452;SDS011;25154;-33.684;151.102;2022-09-09T22:34:16;0.65;;;0.40;;
39452;SDS011;25154;-33.684;151.102;2022-09-09T22:39:20;2.92;;;0.82;;
39452;SDS011;25154;-33.684;151.102;2022-09-09T22:44:24;3.10;;;0.60;;
39452;SDS011;25154;-33.684;151.102;2022-09-09T22:49:27;1.52;;;0.60;;
39452;SDS011;25154;-33.684;151.102;2022-09-09T22:54:30;0.98;;;0.52;;
39452;SDS011;25154;-33.684;151.102;2022-09-09T22:59:32;0.90;;;0.65;;
39452;SDS011;25154;-33.684;151.102;2022-09-09T23:10:02;1.02;;;0.60;;
39452;SDS011;25154;-33.684;151.102;2022-09-09T23:15:07;0.70;;;0.47;;
39452;SDS011;25154;-33.684;151.102;2022-09-09T23:20:10;1.45;;;0.50;;
39452;SDS011;25154;-33.684;151.102;2022-09-09T23:25:13;1.35;;;0.70;;
39452;SDS011;25154;-33.684;151.102;2022-09-09T23:30:16;2.08;;;0.65;;
39452;SDS011;25154;-33.684;151.102;2022-09-09T23:35:19;1.40;;;0.60;;
39452;SDS011;25154;-33.684;151.102;2022-09-09T23:40:22;1.73;;;0.60;;
39452;SDS011;25154;-33.684;151.102;2022-09-09T23:45:26;1.08;;;0.50;;
39452;SDS011;25154;-33.684;151.102;2022-09-09T23:50:29;0.75;;;0.60;;
39452;SDS011;25154;-33.684;151.102;2022-09-09T23:55:32;0.70;;;0.40;;
